Overview Statistics Trail Chart Weather Telemetry Raw packets
 

This is the latest recevied weather packets stored in our database for station/object EA4HRG-10. If no packets are shown the sender has not sent any weather packets the latest 10 day(s).

<< 22 23 24 25 26 27 28 >>
Time Temp. Humidity Pressure Rain* Wind** Luminosity Snow
1788104437 37.78° C 13% 1009 hPa - - - -
1788103537 37.22° C 13% 1009.1 hPa - - - -
1788102637 37.22° C 13% 1009.2 hPa - - - -
1788101737 36.67° C 14% 1009.4 hPa - - - -
1788100837 38.33° C 13% 1008.9 hPa - - - -
1788099937 37.22° C 13% 1009.5 hPa - - - -
1788099037 37.78° C 13% 1009.4 hPa - - - -
1788098137 37.22° C 14% 1009.7 hPa - - - -
1788097237 36.67° C 14% 1010.1 hPa - - - -
1788096337 36.67° C 14% 1010.1 hPa - - - -
1788095437 37.78° C 14% 1010 hPa - - - -
1788094622 36.67° C 15% 1010.6 hPa - - - -
1788094537 36.67° C 15% 1010.6 hPa - - - -
1788093637 35.56° C 15% 1011 hPa - - - -
1788092737 35.56° C 15% 1011.1 hPa - - - -
1788091837 35° C 15% 1011.3 hPa - - - -
1788090937 35° C 16% 1011.5 hPa - - - -
1788090037 35° C 16% 1011.6 hPa - - - -
1788089137 33.89° C 16% 1011.9 hPa - - - -
1788088237 34.44° C 16% 1012 hPa - - - -
1788087337 34.44° C 16% 1012.1 hPa - - - -
1788086437 34.44° C 16% 1012 hPa - - - -
1788085537 33.89° C 16% 1012.4 hPa - - - -
1788084705 32.78° C 18% 1012.9 hPa - - - -
1788084637 32.78° C 18% 1012.9 hPa - - - -

* Rain since midnight (hover to see other rain measurements)
** Current wind speed in m/s (hover to see current wind gust speed)